Time;durP1;ratioP1;P1;durP2;ratioP2;P2;SDS_P1;SDS_P2;PMS_P1;PMS_P2;Temp;Humidity;BMP_temperature;BMP_pressure;BME280_temperature;BME280_humidity;BME280_pressure;Samples;Min_cycle;Max_cycle;Signal;HPM_P1;HPM_P2
2021/07/05 00:02:11;;;;;;;6.70;3.85;;;20.60;99.90;;;;;;5020698;28;20041;-67
2021/07/05 00:04:39;;;;;;;4.13;3.58;;;20.60;99.90;;;;;;5024319;28;20038;-67
2021/07/05 00:07:05;;;;;;;4.90;3.95;;;20.60;99.90;;;;;;5015730;28;20446;-67
2021/07/05 00:09:33;;;;;;;6.40;3.80;;;20.70;99.90;;;;;;5023967;28;20057;-69
2021/07/05 00:12:00;;;;;;;5.45;3.75;;;20.70;99.90;;;;;;5022774;28;20116;-67
2021/07/05 00:14:28;;;;;;;4.57;4.13;;;20.70;99.90;;;;;;5024662;28;20057;-67
2021/07/05 00:16:55;;;;;;;6.28;5.68;;;20.70;99.90;;;;;;5023213;28;20518;-71
2021/07/05 00:19:22;;;;;;;4.00;2.97;;;20.70;99.90;;;;;;5025337;28;20041;-67
2021/07/05 00:21:49;;;;;;;4.28;3.45;;;20.70;99.90;;;;;;5021768;28;20087;-66
2021/07/05 00:24:17;;;;;;;4.30;3.97;;;20.70;99.90;;;;;;5023619;28;20091;-69
2021/07/05 00:26:45;;;;;;;4.40;3.65;;;20.70;99.90;;;;;;5023342;28;20042;-68
2021/07/05 00:29:12;;;;;;;3.67;3.38;;;20.70;99.90;;;;;;5024963;28;20045;-71
2021/07/05 00:31:40;;;;;;;3.45;3.15;;;20.70;99.90;;;;;;5025552;28;20545;-69
2021/07/05 00:34:07;;;;;;;4.18;3.78;;;20.70;99.90;;;;;;5027096;28;20067;-68
2021/07/05 00:36:34;;;;;;;4.13;3.83;;;20.70;99.90;;;;;;5028995;28;20057;-67
2021/07/05 00:39:01;;;;;;;4.78;4.22;;;20.70;99.90;;;;;;5027296;28;20857;-68
2021/07/05 00:41:29;;;;;;;4.35;3.58;;;20.70;99.90;;;;;;5028138;28;20407;-67
2021/07/05 00:43:57;;;;;;;8.20;3.50;;;20.70;99.90;;;;;;5025372;28;20052;-67
2021/07/05 00:46:25;;;;;;;4.10;3.65;;;20.70;99.90;;;;;;5027548;28;20053;-70
2021/07/05 00:48:53;;;;;;;7.13;3.30;;;20.70;99.90;;;;;;5026795;28;20076;-67
2021/07/05 00:51:21;;;;;;;4.32;3.67;;;20.70;99.90;;;;;;5028432;28;20065;-67
2021/07/05 00:53:49;;;;;;;3.47;3.20;;;20.70;99.90;;;;;;5023387;28;20045;-67
2021/07/05 00:56:16;;;;;;;5.35;4.07;;;20.70;99.90;;;;;;5023526;28;20091;-70
2021/07/05 00:58:43;;;;;;;3.58;3.28;;;20.70;99.90;;;;;;5025587;28;20092;-70
2021/07/05 01:01:10;;;;;;;4.72;4.13;;;20.70;99.90;;;;;;5028275;28;20117;-68
2021/07/05 01:03:38;;;;;;;7.13;3.63;;;20.70;99.90;;;;;;5026376;28;20388;-68
2021/07/05 01:06:05;;;;;;;5.00;4.50;;;20.70;99.90;;;;;;5028105;28;20454;-68
2021/07/05 01:08:32;;;;;;;4.07;3.13;;;20.70;99.90;;;;;;5025490;28;20060;-70
2021/07/05 01:10:58;;;;;;;3.90;3.45;;;20.70;99.90;;;;;;5029232;28;20064;-69
2021/07/05 01:13:25;;;;;;;5.50;4.32;;;20.70;99.90;;;;;;5027275;28;20041;-68
2021/07/05 01:15:52;;;;;;;3.85;3.15;;;20.70;99.90;;;;;;5025674;28;20043;-68
2021/07/05 01:18:20;;;;;;;8.55;3.92;;;20.70;99.90;;;;;;5028852;28;20128;-68
2021/07/05 01:20:46;;;;;;;4.65;3.47;;;20.70;99.90;;;;;;5026444;28;20815;-69
2021/07/05 01:23:13;;;;;;;5.20;3.55;;;20.70;99.90;;;;;;5027364;28;20040;-69
2021/07/05 01:25:41;;;;;;;7.75;4.07;;;20.70;99.90;;;;;;5027987;28;20403;-67
2021/07/05 01:28:10;;;;;;;3.63;3.33;;;20.60;99.90;;;;;;5026003;28;20500;-69
2021/07/05 01:30:40;;;;;;;4.82;3.42;;;20.70;99.90;;;;;;5025996;28;20051;-68
2021/07/05 01:33:09;;;;;;;4.78;4.10;;;20.70;99.90;;;;;;5026987;28;20073;-68
2021/07/05 01:35:36;;;;;;;4.30;3.90;;;20.60;99.90;;;;;;5026633;28;20072;-68
2021/07/05 01:38:09;;;;;;;5.72;4.00;;;20.60;99.90;;;;;;5026056;28;20490;-68
2021/07/05 01:40:37;;;;;;;3.47;3.17;;;20.60;99.90;;;;;;5024893;28;20686;-67
2021/07/05 01:43:04;;;;;;;4.72;4.03;;;20.50;99.90;;;;;;5027664;28;20211;-69
2021/07/05 01:45:32;;;;;;;5.25;4.75;;;20.50;99.90;;;;;;5022973;28;20446;-68
2021/07/05 01:48:00;;;;;;;4.68;4.13;;;20.50;99.90;;;;;;5023562;28;20146;-67
2021/07/05 01:50:29;;;;;;;5.45;3.95;;;20.50;99.90;;;;;;5021720;28;20057;-71
2021/07/05 01:52:56;;;;;;;5.63;4.50;;;20.40;99.90;;;;;;5022678;28;20057;-67
2021/07/05 01:55:27;;;;;;;4.80;3.72;;;20.40;99.90;;;;;;5022789;28;20500;-67
2021/07/05 01:57:55;;;;;;;5.13;3.88;;;20.30;99.90;;;;;;5023927;28;20139;-68
2021/07/05 02:00:22;;;;;;;5.90;4.07;;;20.30;99.90;;;;;;5022579;28;20480;-70
2021/07/05 02:02:52;;;;;;;5.32;4.32;;;20.30;99.90;;;;;;5028022;28;20070;-68
2021/07/05 02:05:20;;;;;;;5.70;5.20;;;20.30;99.90;;;;;;5024025;28;20088;-68
2021/07/05 02:07:48;;;;;;;5.45;4.13;;;20.30;99.90;;;;;;5018987;28;20263;-68
2021/07/05 02:10:43;;;;;;;4.32;3.47;;;20.30;99.90;;;;;;5023453;28;20542;-70
2021/07/05 02:13:14;;;;;;;5.40;4.03;;;20.20;99.90;;;;;;5019686;28;20103;-68
2021/07/05 02:15:42;;;;;;;6.30;4.00;;;20.20;99.90;;;;;;5024116;28;20136;-70
2021/07/05 02:18:09;;;;;;;7.22;5.25;;;20.20;99.90;;;;;;5022072;28;20154;-70
2021/07/05 02:20:36;;;;;;;4.15;3.83;;;20.20;99.90;;;;;;5021845;28;20492;-70
2021/07/05 02:23:06;;;;;;;4.43;4.03;;;20.20;99.90;;;;;;5020319;28;20368;-70
2021/07/05 02:25:34;;;;;;;6.00;4.50;;;20.20;99.90;;;;;;5021220;28;20104;-67
2021/07/05 02:28:07;;;;;;;5.05;4.22;;;20.20;99.90;;;;;;5020884;28;20535;-69
2021/07/05 02:30:34;;;;;;;6.20;4.63;;;20.10;99.90;;;;;;5021607;28;20057;-68
2021/07/05 02:33:04;;;;;;;4.40;4.03;;;20.10;99.90;;;;;;5023497;28;21034;-68
2021/07/05 02:35:34;;;;;;;;;;;20.10;99.90;;;;;;5022743;28;20069;-67
2021/07/05 02:38:05;;;;;;;6.97;3.67;;;20.20;99.90;;;;;;5020579;28;20401;-69
2021/07/05 02:40:34;;;;;;;4.80;4.30;;;20.10;99.90;;;;;;5023822;28;20053;-68
2021/07/05 02:43:02;;;;;;;4.93;3.28;;;20.20;99.90;;;;;;5022724;28;20344;-71
2021/07/05 02:45:32;;;;;;;5.25;4.55;;;20.20;99.90;;;;;;5024048;28;20129;-70
2021/07/05 02:48:02;;;;;;;5.85;5.20;;;20.20;99.90;;;;;;5020998;28;20049;-68
2021/07/05 02:50:30;;;;;;;3.45;3.15;;;20.20;99.90;;;;;;5023683;28;20041;-67
2021/07/05 02:52:58;;;;;;;6.45;3.95;;;20.20;99.90;;;;;;5022928;28;20144;-68
2021/07/05 02:55:25;;;;;;;6.35;5.75;;;20.20;99.90;;;;;;5022841;28;20511;-69
2021/07/05 02:57:53;;;;;;;4.68;4.28;;;20.20;99.90;;;;;;5018973;28;20123;-68
2021/07/05 03:00:23;;;;;;;6.15;4.38;;;20.10;99.90;;;;;;5024741;28;20152;-67
2021/07/05 03:02:51;;;;;;;4.80;3.85;;;20.20;99.90;;;;;;5021161;28;20523;-69
2021/07/05 03:05:22;;;;;;;6.32;4.90;;;20.20;99.90;;;;;;5024377;28;20172;-67
2021/07/05 03:07:50;;;;;;;4.88;4.47;;;20.10;99.90;;;;;;5016659;28;20074;-68
2021/07/05 03:10:24;;;;;;;5.38;4.88;;;20.20;99.90;;;;;;5022550;28;20144;-69
2021/07/05 03:12:51;;;;;;;4.90;4.40;;;20.20;99.90;;;;;;5022010;28;20083;-68
2021/07/05 03:15:19;;;;;;;5.40;4.72;;;20.20;99.90;;;;;;5022336;28;20030;-68
2021/07/05 03:17:48;;;;;;;4.63;4.20;;;20.10;99.90;;;;;;5018769;28;20053;-68
2021/07/05 03:20:19;;;;;;;5.40;4.25;;;20.20;99.90;;;;;;5021967;28;20034;-67
2021/07/05 03:22:47;;;;;;;6.65;5.03;;;20.20;99.90;;;;;;5023677;28;20085;-68
2021/07/05 03:25:16;;;;;;;6.88;5.38;;;20.20;99.90;;;;;;5020955;28;20095;-68
2021/07/05 03:27:44;;;;;;;5.93;5.18;;;20.20;99.90;;;;;;5023623;28;20041;-67
2021/07/05 03:30:13;;;;;;;5.07;4.68;;;20.20;99.90;;;;;;5018609;28;20124;-68
2021/07/05 03:32:40;;;;;;;6.82;5.13;;;20.20;99.90;;;;;;5023759;28;20037;-69
2021/07/05 03:35:09;;;;;;;5.63;5.10;;;20.20;99.90;;;;;;5019788;28;20049;-67
2021/07/05 03:37:37;;;;;;;6.25;5.65;;;20.20;99.90;;;;;;5021766;28;20401;-69
2021/07/05 03:40:07;;;;;;;5.78;4.18;;;20.30;99.90;;;;;;5020514;28;20120;-69
2021/07/05 03:42:34;;;;;;;7.53;4.43;;;20.30;99.90;;;;;;5022909;28;20126;-67
2021/07/05 03:45:05;;;;;;;8.23;4.75;;;20.30;99.90;;;;;;5021039;28;20484;-71
2021/07/05 03:47:32;;;;;;;9.60;4.95;;;20.30;99.90;;;;;;5022499;28;20045;-67
2021/07/05 03:49:58;;;;;;;4.90;4.13;;;20.40;99.90;;;;;;5019107;28;20076;-67
2021/07/05 03:52:25;;;;;;;5.35;3.75;;;20.40;99.90;;;;;;5022283;28;20055;-68
2021/07/05 03:54:52;;;;;;;5.20;4.40;;;20.50;99.90;;;;;;5020619;28;20076;-68
2021/07/05 03:57:22;;;;;;;6.03;4.95;;;20.50;99.90;;;;;;5022485;28;20049;-68
2021/07/05 03:59:50;;;;;;;6.78;4.38;;;20.60;99.90;;;;;;5019089;28;20099;-68
2021/07/05 04:02:18;;;;;;;6.80;4.57;;;20.70;99.90;;;;;;5022174;28;20100;-68
2021/07/05 04:04:45;;;;;;;6.63;4.65;;;20.80;99.90;;;;;;5020935;28;20175;-69
2021/07/05 04:07:11;;;;;;;6.93;5.22;;;20.90;99.90;;;;;;5021046;28;20456;-71
2021/07/05 04:09:39;;;;;;;5.68;4.05;;;20.90;99.90;;;;;;5020779;28;20099;-68
2021/07/05 04:12:09;;;;;;;5.38;4.85;;;21.10;99.90;;;;;;5020326;28;20403;-68
2021/07/05 04:14:36;;;;;;;5.25;4.63;;;21.20;99.90;;;;;;5019248;28;20132;-69
2021/07/05 04:17:03;;;;;;;5.43;4.50;;;21.30;99.90;;;;;;5022106;28;20069;-69
2021/07/05 04:19:31;;;;;;;5.30;4.07;;;21.50;99.90;;;;;;5021322;28;21261;-68
2021/07/05 04:21:58;;;;;;;5.72;4.97;;;21.50;99.90;;;;;;5018345;28;20078;-68
2021/07/05 04:24:26;;;;;;;4.50;4.07;;;21.70;99.90;;;;;;5021058;28;20072;-69
2021/07/05 04:26:53;;;;;;;6.22;5.03;;;21.80;99.90;;;;;;5021716;28;20064;-68
2021/07/05 04:29:20;;;;;;;6.88;4.15;;;21.80;99.90;;;;;;5021530;28;20451;-69
2021/07/05 04:31:47;;;;;;;6.00;4.80;;;21.80;99.90;;;;;;5019656;28;20686;-67
2021/07/05 04:34:14;;;;;;;4.57;4.18;;;22.00;99.90;;;;;;5020897;28;20137;-68
2021/07/05 04:36:41;;;;;;;4.95;4.05;;;22.00;99.90;;;;;;5021449;28;20042;-69
2021/07/05 04:39:08;;;;;;;14.32;5.80;;;22.00;99.90;;;;;;5020840;28;20174;-68
2021/07/05 04:41:36;;;;;;;6.05;3.90;;;22.00;99.90;;;;;;5020310;28;20133;-69
2021/07/05 04:44:03;;;;;;;6.18;5.43;;;22.00;99.90;;;;;;5019625;28;20115;-68
2021/07/05 04:46:30;;;;;;;5.50;4.53;;;22.10;99.90;;;;;;5021602;28;20069;-68
2021/07/05 04:48:57;;;;;;;4.70;4.20;;;22.10;99.90;;;;;;5021272;28;20050;-68
2021/07/05 04:51:24;;;;;;;6.07;4.57;;;22.20;99.90;;;;;;5019125;28;20106;-69
2021/07/05 04:53:51;;;;;;;5.50;4.88;;;22.20;99.90;;;;;;5019405;28;20065;-68
2021/07/05 04:56:19;;;;;;;6.22;4.20;;;22.30;99.90;;;;;;5021577;28;20103;-68
2021/07/05 04:58:46;;;;;;;6.03;5.03;;;22.30;99.90;;;;;;5020053;28;20135;-70
2021/07/05 05:01:13;;;;;;;9.55;4.30;;;22.40;99.90;;;;;;5021425;28;20682;-69
2021/07/05 05:03:40;;;;;;;5.30;4.55;;;22.40;99.90;;;;;;5021110;28;20517;-69
2021/07/05 05:06:07;;;;;;;12.00;4.85;;;22.50;99.90;;;;;;5020505;28;20050;-69
2021/07/05 05:08:34;;;;;;;5.45;4.20;;;22.50;99.90;;;;;;5020163;28;20038;-69
2021/07/05 05:11:01;;;;;;;5.85;4.90;;;22.50;99.90;;;;;;5021544;28;20087;-68
2021/07/05 05:13:28;;;;;;;5.53;3.65;;;22.50;99.90;;;;;;5020631;28;20128;-67
2021/07/05 05:15:56;;;;;;;5.40;4.28;;;22.60;99.90;;;;;;5020330;28;20038;-67
2021/07/05 05:18:23;;;;;;;6.00;4.90;;;22.70;99.90;;;;;;5020411;28;20133;-68
2021/07/05 05:20:50;;;;;;;8.30;4.45;;;22.80;99.90;;;;;;5025267;28;20054;-71
2021/07/05 05:23:17;;;;;;;6.00;4.20;;;22.70;99.90;;;;;;5024546;28;20079;-68
2021/07/05 05:25:44;;;;;;;6.10;4.72;;;22.70;99.90;;;;;;5024430;28;20103;-68
2021/07/05 05:28:11;;;;;;;4.57;3.83;;;22.80;99.90;;;;;;5023200;28;20038;-70
2021/07/05 05:30:38;;;;;;;5.25;4.50;;;22.80;99.90;;;;;;5023961;28;20554;-67
2021/07/05 05:33:06;;;;;;;6.85;4.97;;;22.80;99.90;;;;;;5024051;28;20152;-68
2021/07/05 05:35:33;;;;;;;7.05;5.05;;;22.80;99.90;;;;;;5022168;28;20050;-68
2021/07/05 05:38:01;;;;;;;6.13;4.53;;;22.90;99.90;;;;;;5021693;28;20424;-68
2021/07/05 05:40:28;;;;;;;5.53;4.88;;;22.90;99.90;;;;;;5024999;28;20115;-70
2021/07/05 05:42:55;;;;;;;8.45;4.40;;;23.00;99.90;;;;;;5023891;28;20077;-68
2021/07/05 05:45:22;;;;;;;7.30;4.53;;;23.10;99.90;;;;;;5023663;28;20144;-68
2021/07/05 05:47:49;;;;;;;4.45;3.97;;;23.20;99.90;;;;;;5022206;28;20069;-68
2021/07/05 05:50:17;;;;;;;4.70;4.25;;;23.30;99.90;;;;;;5024744;28;20128;-68
2021/07/05 05:52:45;;;;;;;5.70;4.65;;;23.30;99.90;;;;;;5022399;28;20550;-69
2021/07/05 05:55:13;;;;;;;5.85;5.35;;;23.40;99.90;;;;;;5024566;28;20045;-67
2021/07/05 05:57:40;;;;;;;5.30;3.90;;;23.40;99.90;;;;;;5023263;28;20045;-70
2021/07/05 06:00:11;;;;;;;5.55;5.15;;;23.50;99.90;;;;;;5022438;28;20049;-67
2021/07/05 06:02:38;;;;;;;5.88;3.83;;;23.60;99.90;;;;;;5021862;28;20123;-67
2021/07/05 06:05:05;;;;;;;4.75;4.10;;;23.60;99.90;;;;;;5023525;28;20053;-68
2021/07/05 06:07:51;;;;;;;5.45;4.25;;;23.70;99.90;;;;;;4015317;28;10002017;-71
2021/07/05 06:10:21;;;;;;;5.68;4.38;;;23.70;99.90;;;;;;2765674;28;10002791;-68
2021/07/05 06:12:49;;;;;;;5.60;3.85;;;23.70;99.90;;;;;;5023508;28;20537;-68
2021/07/05 06:15:17;;;;;;;4.60;4.18;;;23.70;99.90;;;;;;5023252;28;20053;-68
2021/07/05 06:17:45;;;;;;;4.03;3.72;;;23.70;99.90;;;;;;5023663;28;20092;-69
2021/07/05 06:20:14;;;;;;;4.88;4.13;;;23.70;99.90;;;;;;5021649;28;20337;-69
2021/07/05 06:23:03;;;;;;;4.50;3.88;;;23.70;99.90;;;;;;5023562;28;20053;-68
2021/07/05 06:25:30;;;;;;;3.90;3.60;;;23.80;99.90;;;;;;5023365;28;20138;-68
2021/07/05 06:27:57;;;;;;;6.45;4.40;;;23.80;99.90;;;;;;5022996;28;20107;-71
2021/07/05 06:30:24;;;;;;;4.22;3.83;;;23.80;99.90;;;;;;5022704;28;20842;-69
2021/07/05 06:32:51;;;;;;;6.18;4.05;;;23.90;99.90;;;;;;5023382;28;20176;-68
2021/07/05 06:35:18;;;;;;;5.57;3.58;;;23.90;99.90;;;;;;5021587;28;20045;-71
2021/07/05 06:37:45;;;;;;;9.70;4.00;;;24.00;99.90;;;;;;5018055;28;20053;-70
2021/07/05 06:40:16;;;;;;;4.38;4.00;;;24.00;99.90;;;;;;5022398;28;20049;-68
2021/07/05 06:42:43;;;;;;;6.78;3.35;;;24.10;99.90;;;;;;5019623;28;20215;-70
2021/07/05 06:45:10;;;;;;;5.82;3.75;;;24.10;99.90;;;;;;5023359;28;20060;-68
2021/07/05 06:47:37;;;;;;;4.40;4.00;;;24.20;99.90;;;;;;5025938;28;20797;-67
2021/07/05 06:50:06;;;;;;;3.75;3.22;;;24.20;99.90;;;;;;5021324;28;20056;-70
2021/07/05 06:52:33;;;;;;;9.70;3.97;;;24.30;99.90;;;;;;5024174;28;20050;-67
2021/07/05 06:55:01;;;;;;;6.00;2.78;;;24.30;99.90;;;;;;5021326;28;20909;-67
2021/07/05 06:57:34;;;;;;;3.78;3.45;;;24.30;99.90;;;;;;5022763;28;20084;-68
2021/07/05 07:00:08;;;;;;;6.28;3.70;;;24.30;99.90;;;;;;5019785;28;20103;-67
2021/07/05 07:02:36;;;;;;;3.25;2.95;;;24.40;99.90;;;;;;5024357;28;20534;-68
2021/07/05 07:05:10;;;;;;;4.93;2.78;;;24.40;99.90;;;;;;5025303;28;20142;-67
2021/07/05 07:07:41;;;;;;;7.20;3.22;;;24.40;99.90;;;;;;5023727;28;20049;-67
2021/07/05 07:10:10;;;;;;;5.22;3.17;;;24.50;99.90;;;;;;5019641;28;20136;-68
2021/07/05 07:12:38;;;;;;;3.55;2.72;;;24.60;99.90;;;;;;5024879;28;20079;-68
2021/07/05 07:15:07;;;;;;;6.97;3.08;;;24.70;99.90;;;;;;5022949;28;20099;-69
2021/07/05 07:17:46;;;;;;;3.53;2.90;;;24.70;99.90;;;;;;5024276;28;20068;-67
2021/07/05 07:20:14;;;;;;;3.17;2.65;;;24.70;99.90;;;;;;5022578;28;20049;-68
2021/07/05 07:22:41;;;;;;;6.38;4.47;;;24.80;99.90;;;;;;5022996;28;20149;-67
2021/07/05 07:25:11;;;;;;;6.65;3.53;;;24.80;99.90;;;;;;5021564;28;20060;-67
2021/07/05 07:27:38;;;;;;;3.33;3.03;;;24.90;99.90;;;;;;5023231;28;20098;-69
2021/07/05 07:30:08;;;;;;;4.82;4.43;;;24.90;99.90;;;;;;5020193;28;20051;-67
2021/07/05 07:32:44;;;;;;;3.40;3.10;;;25.00;99.90;;;;;;5022433;28;20041;-68
2021/07/05 07:35:14;;;;;;;3.63;2.72;;;25.10;99.90;;;;;;5022880;28;20049;-68
2021/07/05 07:37:44;;;;;;;4.65;2.47;;;25.10;99.90;;;;;;5021618;28;20124;-69
2021/07/05 07:40:15;;;;;;;4.20;2.80;;;25.10;99.90;;;;;;5020722;28;20052;-71
2021/07/05 07:42:43;;;;;;;7.72;2.97;;;25.10;99.90;;;;;;5021630;28;20045;-70
2021/07/05 07:45:12;;;;;;;4.00;2.75;;;25.10;99.90;;;;;;5021232;28;20045;-67
2021/07/05 07:47:39;;;;;;;4.32;3.33;;;25.10;99.90;;;;;;5022189;28;20076;-69
2021/07/05 07:50:08;;;;;;;4.72;3.35;;;25.10;99.90;;;;;;5020508;28;20408;-67
2021/07/05 07:52:37;;;;;;;3.67;3.33;;;25.20;99.90;;;;;;5022343;28;20045;-70
2021/07/05 07:55:06;;;;;;;16.45;4.35;;;25.30;99.90;;;;;;5021335;28;20128;-71
2021/07/05 07:57:33;;;;;;;3.25;2.95;;;25.40;99.90;;;;;;5022794;28;20049;-69
2021/07/05 08:00:00;;;;;;;10.32;4.63;;;25.50;99.90;;;;;;5019597;28;20045;-70
2021/07/05 08:02:38;;;;;;;2.95;2.75;;;25.50;99.90;;;;;;5022100;28;20081;-69
2021/07/05 08:05:07;;;;;;;4.03;3.72;;;25.50;99.90;;;;;;5021718;28;20124;-69
2021/07/05 08:07:37;;;;;;;5.95;2.95;;;25.50;99.90;;;;;;5022165;28;20033;-68
2021/07/05 08:10:05;;;;;;;11.88;3.00;;;25.50;99.90;;;;;;5020125;28;20107;-70
2021/07/05 08:12:32;;;;;;;5.10;3.50;;;25.40;99.90;;;;;;5022650;28;20103;-69
2021/07/05 08:14:59;;;;;;;5.63;3.60;;;25.30;99.90;;;;;;5021580;28;20602;-67
2021/07/05 08:17:27;;;;;;;4.57;2.88;;;25.20;99.90;;;;;;5021935;28;20136;-69
2021/07/05 08:19:54;;;;;;;5.32;3.13;;;25.10;99.90;;;;;;5020231;28;20076;-68
2021/07/05 08:22:21;;;;;;;2.85;2.65;;;25.10;99.90;;;;;;5021418;28;20045;-67
2021/07/05 08:24:50;;;;;;;4.63;2.90;;;25.10;99.90;;;;;;5021131;28;20414;-68
2021/07/05 08:27:17;;;;;;;3.95;3.00;;;25.00;99.90;;;;;;5022523;28;20053;-68
2021/07/05 08:29:44;;;;;;;3.47;3.22;;;25.00;99.90;;;;;;5021541;28;20096;-68
2021/07/05 08:32:11;;;;;;;3.42;3.03;;;25.10;99.90;;;;;;5020728;28;20049;-67
2021/07/05 08:34:38;;;;;;;5.53;3.53;;;25.10;99.90;;;;;;5021098;28;20041;-68
2021/07/05 08:37:05;;;;;;;4.25;2.78;;;25.10;99.90;;;;;;5020009;28;20041;-70
2021/07/05 08:39:32;;;;;;;4.57;2.67;;;25.10;99.90;;;;;;5019815;28;20138;-70
2021/07/05 08:41:58;;;;;;;3.10;2.80;;;25.20;99.90;;;;;;5020569;28;20057;-68
2021/07/05 08:44:26;;;;;;;2.85;2.50;;;25.30;99.90;;;;;;5021370;28;20049;-68
2021/07/05 08:46:55;;;;;;;3.15;2.55;;;25.40;99.90;;;;;;5022775;28;20606;-69
2021/07/05 08:49:22;;;;;;;3.90;2.70;;;25.60;99.90;;;;;;5020048;28;20085;-68
2021/07/05 08:51:53;;;;;;;3.33;2.92;;;25.70;99.90;;;;;;5020440;28;20038;-68
2021/07/05 08:54:20;;;;;;;3.20;2.55;;;25.70;99.90;;;;;;5024459;28;20060;-68
2021/07/05 08:56:47;;;;;;;2.58;2.38;;;25.80;99.90;;;;;;5026767;28;20128;-68
2021/07/05 08:59:16;;;;;;;6.10;2.17;;;25.90;99.90;;;;;;5024100;28;20310;-70
2021/07/05 09:01:42;;;;;;;7.03;2.30;;;26.00;99.90;;;;;;5026641;28;20498;-70
2021/07/05 09:04:17;;;;;;;4.20;2.53;;;26.20;99.90;;;;;;5022831;28;20067;-68
2021/07/05 09:07:04;;;;;;;2.85;2.58;;;26.50;99.90;;;;;;5025931;28;20127;-68
2021/07/05 09:09:33;;;;;;;3.80;3.28;;;26.70;99.90;;;;;;5024614;28;20121;-68
2021/07/05 09:12:06;;;;;;;3.78;2.45;;;26.90;99.90;;;;;;5023839;28;20071;-67
2021/07/05 09:14:35;;;;;;;7.55;2.67;;;27.10;99.90;;;;;;5023751;28;20045;-70
2021/07/05 09:17:10;;;;;;;6.45;2.58;;;27.20;99.90;;;;;;5025560;28;20060;-68
2021/07/05 09:19:40;;;;;;;4.90;2.75;;;27.30;99.90;;;;;;5022993;28;20530;-71
2021/07/05 09:22:09;;;;;;;3.03;2.83;;;27.30;99.90;;;;;;5023227;28;20064;-67
2021/07/05 09:24:42;;;;;;;5.38;3.03;;;27.30;99.90;;;;;;5022800;28;20577;-67
2021/07/05 09:27:25;;;;;;;3.38;2.80;;;27.30;99.90;;;;;;5026471;28;20179;-68
2021/07/05 09:29:52;;;;;;;3.60;2.33;;;27.30;99.90;;;;;;5021291;28;21154;-70
2021/07/05 09:32:29;;;;;;;4.70;2.65;;;27.30;99.90;;;;;;5025985;28;20910;-69
2021/07/05 09:34:56;;;;;;;2.75;2.35;;;27.40;99.90;;;;;;5024366;28;20045;-68
2021/07/05 09:37:27;;;;;;;;;;;27.40;99.90;;;;;;5025184;28;20151;-68
2021/07/05 09:40:03;;;;;;;3.20;2.38;;;27.30;99.90;;;;;;5023365;28;19948;-67
2021/07/05 09:42:44;;;;;;;4.45;2.65;;;27.20;99.90;;;;;;5021318;28;20060;-70
2021/07/05 09:45:23;;;;;;;3.13;2.53;;;27.10;99.90;;;;;;5022701;28;20516;-70
2021/07/05 09:48:20;;;;;;;3.97;2.83;;;27.10;99.90;;;;;;5021873;28;20104;-67
2021/07/05 09:50:51;;;;;;;3.83;2.63;;;27.10;99.90;;;;;;5024635;28;20053;-71
2021/07/05 09:53:41;;;;;;;4.00;3.15;;;27.00;99.90;;;;;;5022642;28;20045;-68
2021/07/05 09:56:27;;;;;;;6.22;2.95;;;26.90;99.90;;;;;;5018618;28;20457;-72
2021/07/05 09:58:59;;;;;;;3.72;3.20;;;26.90;99.90;;;;;;5021976;28;20707;-68
2021/07/05 10:01:47;;;;;;;3.22;2.92;;;26.90;99.90;;;;;;5024153;28;20060;-67
2021/07/05 10:04:31;;;;;;;3.22;2.95;;;27.00;99.90;;;;;;5022871;28;20041;-68
2021/07/05 10:07:02;;;;;;;2.90;2.70;;;27.10;99.90;;;;;;5022860;28;20148;-70
2021/07/05 10:09:36;;;;;;;;;;;27.30;99.90;;;;;;5026184;28;20053;-68
2021/07/05 10:12:30;;;;;;;5.00;2.58;;;27.30;99.90;;;;;;5021155;28;20012;-68
2021/07/05 10:15:04;;;;;;;2.90;2.60;;;27.40;99.90;;;;;;5023203;28;20049;-71
2021/07/05 10:17:42;;;;;;;3.38;2.90;;;27.30;99.90;;;;;;5023784;28;20530;-68
2021/07/05 10:20:31;;;;;;;;;;;27.30;99.90;;;;;;5023024;28;20496;-72
2021/07/05 10:23:01;;;;;;;6.15;3.30;;;27.20;99.90;;;;;;5018088;28;19933;-70
2021/07/05 10:25:31;;;;;;;4.05;3.75;;;27.20;99.90;;;;;;5023100;28;20046;-67
2021/07/05 10:27:59;;;;;;;3.13;2.78;;;27.20;99.90;;;;;;5023241;28;20053;-69
2021/07/05 10:30:26;;;;;;;2.78;2.10;;;27.40;99.90;;;;;;5024107;28;20057;-67
2021/07/05 10:32:54;;;;;;;3.40;3.20;;;27.50;99.90;;;;;;5023997;28;20049;-69
2021/07/05 10:35:33;;;;;;;3.50;3.17;;;27.50;99.90;;;;;;5024212;28;20099;-68
2021/07/05 10:38:01;;;;;;;3.08;2.78;;;27.60;99.90;;;;;;5022186;28;20045;-69
2021/07/05 10:40:41;;;;;;;2.45;2.25;;;27.80;99.90;;;;;;5023020;28;20045;-67
2021/07/05 10:43:11;;;;;;;4.22;2.83;;;27.90;99.90;;;;;;5022857;28;20057;-69
2021/07/05 10:45:53;;;;;;;8.00;2.83;;;27.90;99.90;;;;;;5021912;28;20107;-69
2021/07/05 10:48:32;;;;;;;4.60;2.30;;;27.80;99.90;;;;;;5022050;28;20107;-67
2021/07/05 10:51:01;;;;;;;3.08;2.55;;;27.90;99.90;;;;;;5022509;28;20111;-70
2021/07/05 10:53:44;;;;;;;3.47;3.00;;;28.00;99.90;;;;;;5023454;28;20077;-70
2021/07/05 10:56:31;;;;;;;3.78;2.50;;;28.10;99.90;;;;;;5020303;28;20060;-72
2021/07/05 10:59:18;;;;;;;2.47;2.28;;;28.20;99.90;;;;;;5023422;28;20076;-69
2021/07/05 11:01:46;;;;;;;2.70;2.50;;;28.30;99.90;;;;;;5020565;28;20099;-70
2021/07/05 11:04:29;;;;;;;3.05;2.70;;;28.30;99.90;;;;;;5019975;28;20053;-69
2021/07/05 11:07:10;;;;;;;2.90;2.70;;;28.40;99.90;;;;;;5021951;28;20099;-68
2021/07/05 11:09:53;;;;;;;3.10;2.90;;;28.10;99.90;;;;;;5022663;28;20050;-68
2021/07/05 11:12:28;;;;;;;2.97;2.75;;;28.00;99.90;;;;;;5021807;28;20088;-68
2021/07/05 11:14:55;;;;;;;3.40;2.38;;;27.90;99.90;;;;;;5023159;28;20349;-67
2021/07/05 11:17:25;;;;;;;4.00;2.88;;;27.90;99.90;;;;;;5022924;28;20068;-68
2021/07/05 11:19:56;;;;;;;;;;;27.80;99.90;;;;;;5021620;28;20102;-68
2021/07/05 11:22:35;;;;;;;6.03;3.45;;;27.90;99.90;;;;;;5020443;28;20078;-70
2021/07/05 11:25:17;;;;;;;4.15;3.47;;;27.80;99.90;;;;;;5023171;28;20052;-67
2021/07/05 11:27:47;;;;;;;5.72;3.55;;;27.60;99.90;;;;;;5021380;28;20400;-69
2021/07/05 11:30:20;;;;;;;3.55;3.25;;;27.60;99.90;;;;;;5020809;28;20103;-68
2021/07/05 11:32:52;;;;;;;15.00;3.80;;;27.50;99.90;;;;;;5021636;28;20096;-68
2021/07/05 11:35:43;;;;;;;3.88;3.53;;;27.50;99.90;;;;;;5020210;28;20107;-69
2021/07/05 11:38:31;;;;;;;8.65;3.50;;;27.50;99.90;;;;;;5017434;28;20045;-69
2021/07/05 11:41:10;;;;;;;5.18;3.28;;;27.60;99.90;;;;;;5023223;28;20107;-68
2021/07/05 11:43:52;;;;;;;4.00;3.20;;;27.70;99.90;;;;;;5019962;28;20131;-67
2021/07/05 11:46:25;;;;;;;3.42;3.15;;;27.80;99.90;;;;;;5020268;28;20045;-68
2021/07/05 11:49:11;;;;;;;3.50;3.20;;;27.70;99.90;;;;;;5017628;28;20045;-67
2021/07/05 11:51:40;;;;;;;3.45;3.15;;;27.60;99.90;;;;;;5022569;28;20052;-68
2021/07/05 11:54:10;;;;;;;4.30;3.30;;;27.30;99.90;;;;;;5019752;28;20225;-72
2021/07/05 11:56:37;;;;;;;;;;;27.30;99.90;;;;;;5024122;28;20061;-68
2021/07/05 11:59:07;;;;;;;4.55;2.97;;;27.00;99.90;;;;;;5019685;28;19925;-69
2021/07/05 12:01:35;;;;;;;6.57;3.42;;;26.90;99.90;;;;;;5022753;28;20053;-68
2021/07/05 12:04:04;;;;;;;6.47;3.65;;;26.90;99.90;;;;;;5018274;28;20049;-68
2021/07/05 12:06:31;;;;;;;8.98;3.83;;;26.80;99.90;;;;;;5021894;28;20065;-67
2021/07/05 12:09:03;;;;;;;3.80;3.50;;;26.80;99.90;;;;;;5019640;28;20455;-68
2021/07/05 12:11:42;;;;;;;3.75;3.45;;;26.80;99.90;;;;;;5023075;28;20119;-67
2021/07/05 12:14:17;;;;;;;4.82;3.35;;;26.80;99.90;;;;;;5018869;28;20041;-68
2021/07/05 12:16:49;;;;;;;5.75;3.33;;;27.00;99.90;;;;;;5021888;28;20076;-68
2021/07/05 12:19:16;;;;;;;3.47;3.03;;;26.90;99.90;;;;;;5020729;28;20067;-69
2021/07/05 12:21:46;;;;;;;3.28;2.83;;;26.80;99.90;;;;;;5022818;28;20081;-67
2021/07/05 12:24:21;;;;;;;3.42;3.08;;;26.80;99.90;;;;;;5020193;28;20033;-68
2021/07/05 12:26:55;;;;;;;4.32;3.10;;;26.70;99.90;;;;;;5020243;28;20041;-69
2021/07/05 12:29:27;;;;;;;8.82;4.88;;;26.50;99.90;;;;;;5020198;28;20515;-66
2021/07/05 12:32:08;;;;;;;4.55;2.97;;;26.50;99.90;;;;;;5021159;28;20049;-70
2021/07/05 12:34:57;;;;;;;5.15;3.70;;;26.20;99.90;;;;;;5021694;28;20633;-70
2021/07/05 12:37:38;;;;;;;3.90;3.53;;;26.00;99.90;;;;;;5020156;28;20129;-68
2021/07/05 12:40:08;;;;;;;4.15;3.15;;;25.80;99.90;;;;;;5020760;28;23307;-70
2021/07/05 12:42:42;;;;;;;3.45;3.05;;;25.70;99.90;;;;;;5020073;28;20091;-68
2021/07/05 12:45:15;;;;;;;4.00;3.60;;;25.60;99.90;;;;;;5020872;28;20057;-68
2021/07/05 12:47:58;;;;;;;6.60;3.85;;;25.30;99.90;;;;;;5020724;28;20605;-71
2021/07/05 12:50:28;;;;;;;11.10;4.47;;;25.10;99.90;;;;;;5020982;28;20065;-67
2021/07/05 12:53:05;;;;;;;4.88;4.20;;;24.90;99.90;;;;;;5019636;28;20041;-68
2021/07/05 12:55:34;;;;;;;4.85;4.28;;;24.80;99.90;;;;;;5022689;28;20042;-67
2021/07/05 12:58:02;;;;;;;4.95;3.70;;;24.80;99.90;;;;;;5019086;28;20168;-68
2021/07/05 13:00:30;;;;;;;5.38;3.75;;;24.80;99.90;;;;;;5022505;28;20140;-68
2021/07/05 13:03:10;;;;;;;11.80;5.75;;;24.80;99.90;;;;;;5021398;28;20108;-68
2021/07/05 13:05:38;;;;;;;11.63;4.65;;;24.80;99.90;;;;;;5022534;28;20045;-68